Erda, Utah
Current Conditions -  °F | °C
As of 4:53 AM on Wednesday 28 Jan 2015 (Local Time) from KSLC Reporting Station
Overcast Overcast  
Wind Chill: 42°   Ceiling: 5500
Heat Index: 42°   Visibility: 10mi
Dew Point: 37°   Wind: 3mph
Humidity: 82%   Direction: 170°S
Pressure: 30.21"   Gusts: NA
Location:  40.5393°N, 112.353°W
Report Text: KSLC 281153Z 17003KT 10SM SCT047 BKN055 OVC070 06/03 A3021 RMK AO2 RAB17E52 SLP220 P0000 60000 T00560028 10089 20039 53010
Loading
Personal Weather Stations






























Interactive Weather Map New forecast layout! Learn more

10-Day Weather Forecast

Advertisements
Track Severe Weather on mobile